createdAt,value
2022-11-22T00:01:53.925Z,95195.34
2022-11-22T00:05:54.318Z,95185.78
2022-11-22T00:09:54.556Z,95192.31
2022-11-22T00:13:54.672Z,95193.19
2022-11-22T00:17:57.371Z,95198.19
2022-11-22T00:21:57.478Z,95198.47
2022-11-22T00:25:57.870Z,95205.84
2022-11-22T00:29:58.009Z,95209.00
2022-11-22T00:34:00.786Z,95197.38
2022-11-22T00:38:00.860Z,95179.44
2022-11-22T00:42:01.997Z,95177.31
2022-11-22T00:46:02.958Z,95178.91
2022-11-22T00:50:06.378Z,95163.84
2022-11-22T00:54:06.771Z,95149.28
2022-11-22T00:58:06.904Z,95155.41
2022-11-22T01:02:07.050Z,95144.09
2022-11-22T01:06:09.745Z,95148.34
2022-11-22T01:10:11.631Z,95142.50
2022-11-22T01:14:11.749Z,95130.63
2022-11-22T01:18:11.889Z,95153.63
2022-11-22T01:22:14.796Z,95144.59
2022-11-22T01:26:16.113Z,95160.44
2022-11-22T01:30:17.242Z,95155.41
2022-11-22T01:34:17.568Z,95169.94
2022-11-22T01:38:20.527Z,95174.16
2022-11-22T01:42:20.827Z,95169.63
2022-11-22T01:46:37.085Z,95170.66
2022-11-22T01:50:42.638Z,95167.66
2022-11-22T01:54:50.753Z,95168.22
2022-11-22T01:58:59.791Z,95171.06
2022-11-22T02:03:05.468Z,95173.50
2022-11-22T02:07:13.878Z,95166.13
2022-11-22T02:11:17.112Z,95161.81
2022-11-22T02:15:17.621Z,95174.59
2022-11-22T02:19:24.894Z,95154.50
2022-11-22T02:23:37.908Z,95141.34
2022-11-22T02:27:40.647Z,95141.94
2022-11-22T02:31:45.436Z,95120.31
2022-11-22T02:35:47.041Z,95119.25
2022-11-22T02:39:51.064Z,95101.31
2022-11-22T02:43:53.795Z,95115.81
2022-11-22T02:47:53.873Z,95112.38
2022-11-22T02:51:56.009Z,95118.41
2022-11-22T02:55:56.093Z,95116.81
2022-11-22T02:59:58.788Z,95126.56
2022-11-22T03:03:58.904Z,95122.25
2022-11-22T03:07:59.107Z,95143.44
2022-11-22T03:11:59.512Z,95132.09
2022-11-22T03:16:02.416Z,95135.84
2022-11-22T03:20:02.597Z,95126.06
2022-11-22T03:24:03.074Z,95114.69
2022-11-22T03:28:03.200Z,95137.19
2022-11-22T03:32:06.024Z,95137.19
2022-11-22T03:36:07.468Z,95135.38
2022-11-22T03:40:09.474Z,95148.84
2022-11-22T03:44:10.154Z,95148.81
2022-11-22T03:48:12.860Z,95157.84
2022-11-22T03:52:13.051Z,95166.31
2022-11-22T03:56:13.343Z,95160.50
2022-11-22T04:00:15.848Z,95148.34
2022-11-22T04:04:19.732Z,95158.91
2022-11-22T04:08:20.030Z,95158.41
2022-11-22T04:12:20.388Z,95174.22
2022-11-22T04:16:20.707Z,95170.53
2022-11-22T04:20:39.151Z,95184.81
2022-11-22T04:24:51.772Z,95181.09
2022-11-22T04:29:09.127Z,95192.75
2022-11-22T04:33:10.105Z,95193.81
2022-11-22T04:37:12.879Z,95184.28
2022-11-22T04:41:13.257Z,95180.06
2022-11-22T04:45:14.182Z,95179.53
2022-11-22T04:49:14.346Z,95186.41
2022-11-22T04:53:15.264Z,95179.22
2022-11-22T04:57:15.404Z,95182.66
2022-11-22T05:01:15.622Z,95184.50
2022-11-22T05:05:15.802Z,95190.84
2022-11-22T05:09:18.857Z,95171.56
2022-11-22T05:13:19.019Z,95181.91
2022-11-22T05:17:19.156Z,95175.81
2022-11-22T05:21:19.254Z,95179.78
2022-11-22T05:25:25.476Z,95173.69
2022-11-22T05:29:26.072Z,95174.22
2022-11-22T05:33:26.210Z,95167.88
2022-11-22T05:37:26.848Z,95165.22
2022-11-22T05:41:29.680Z,95173.66
2022-11-22T05:45:30.048Z,95165.75
2022-11-22T05:49:30.510Z,95172.06
2022-11-22T05:53:30.762Z,95167.84
2022-11-22T05:57:36.004Z,95168.38
2022-11-22T06:01:36.169Z,95169.69
2022-11-22T06:05:36.282Z,95166.78
2022-11-22T06:09:36.453Z,95169.44
2022-11-22T06:13:42.117Z,95157.53
2022-11-22T06:17:42.307Z,95181.66
2022-11-22T06:21:42.771Z,95195.38
2022-11-22T06:25:43.141Z,95196.97
2022-11-22T06:29:46.077Z,95199.56
2022-11-22T06:33:47.332Z,95200.63
2022-11-22T06:37:47.490Z,95209.63
2022-11-22T06:41:47.927Z,95212.25
2022-11-22T06:45:50.821Z,95213.59
2022-11-22T06:49:50.976Z,95203.78
2022-11-22T06:53:52.580Z,95220.22
2022-11-22T06:57:53.801Z,95222.84
2022-11-22T07:01:59.016Z,95226.53
2022-11-22T07:06:03.154Z,95229.22
2022-11-22T07:10:03.227Z,95222.84
2022-11-22T07:14:08.749Z,95227.38
2022-11-22T07:18:12.047Z,95223.91
2022-11-22T07:22:12.169Z,95239.53
2022-11-22T07:26:16.131Z,95243.75
2022-11-22T07:30:17.978Z,95249.31
2022-11-22T07:34:23.899Z,95244.56
2022-11-22T07:38:59.329Z,95272.03
2022-11-22T07:43:08.264Z,95287.94
2022-11-22T07:47:08.411Z,95295.34
2022-11-22T07:51:14.763Z,95299.59
2022-11-22T07:55:14.890Z,95298.50
2022-11-22T07:59:15.141Z,95303.56
2022-11-22T08:03:17.794Z,95301.66
2022-11-22T08:07:21.144Z,95291.81
2022-11-22T08:11:21.515Z,95293.53
2022-11-22T08:15:22.225Z,95253.91
2022-11-22T08:19:22.683Z,95300.94
2022-11-22T08:23:25.735Z,95307.50
2022-11-22T08:27:27.803Z,95313.13
2022-11-22T08:31:29.655Z,95323.72
2022-11-22T08:35:30.104Z,95329.03
2022-11-22T08:39:33.376Z,95310.94
2022-11-22T08:43:33.787Z,95345.53
2022-11-22T08:47:38.138Z,95341.03
2022-11-22T08:51:45.506Z,95337.25
2022-11-22T08:56:04.217Z,95233.88
2022-11-22T09:00:04.626Z,95345.13
2022-11-22T09:04:04.719Z,95315.69
2022-11-22T09:12:27.763Z,95341.59
2022-11-22T09:16:31.822Z,95355.47
2022-11-22T09:20:32.575Z,95342.75
2022-11-22T09:24:37.248Z,95370.84
2022-11-22T09:28:40.729Z,95363.00
2022-11-22T09:32:41.020Z,95361.28
2022-11-22T09:36:44.389Z,95376.66
2022-11-22T09:40:49.804Z,95367.47
2022-11-22T09:45:31.344Z,95363.25
2022-11-22T09:49:40.200Z,95358.91
2022-11-22T09:53:49.381Z,95363.66
2022-11-22T09:57:55.089Z,95378.31
2022-11-22T10:02:18.226Z,95361.13
2022-11-22T10:06:30.070Z,95361.38
2022-11-22T10:10:41.317Z,95373.03
2022-11-22T10:14:55.963Z,95380.09
2022-11-22T10:19:06.964Z,95373.13
2022-11-22T10:23:19.778Z,95371.84
2022-11-22T10:27:20.007Z,95399.31
2022-11-22T10:31:29.225Z,95387.94
2022-11-22T10:35:54.198Z,95395.25
2022-11-22T10:40:16.180Z,95352.91
2022-11-22T10:44:37.367Z,95363.63
2022-11-22T10:48:49.094Z,95384.28
2022-11-22T10:53:07.871Z,95404.13
2022-11-22T10:57:21.689Z,95391.31
2022-11-22T11:01:36.109Z,95381.47
2022-11-22T11:06:15.287Z,95383.81
2022-11-22T11:20:52.149Z,95350.00
2022-11-22T11:24:55.476Z,95415.25
2022-11-22T11:29:41.642Z,95408.38
2022-11-22T11:33:44.450Z,95391.09
2022-11-22T11:37:44.682Z,95399.22
2022-11-22T11:41:44.830Z,95390.13
2022-11-22T11:45:47.738Z,95382.03
2022-11-22T11:49:54.446Z,95386.47
2022-11-22T11:54:03.841Z,95388.09
2022-11-22T11:58:07.581Z,95398.34
2022-11-22T12:02:18.836Z,95383.19
2022-11-22T12:06:20.122Z,95384.91
2022-11-22T12:10:46.811Z,95371.09
2022-11-22T12:15:10.753Z,95380.84
2022-11-22T12:19:27.543Z,95374.25
2022-11-22T12:23:36.336Z,95347.00
2022-11-22T12:27:36.671Z,95342.88
2022-11-22T12:31:44.409Z,95359.06
2022-11-22T12:35:49.466Z,95306.38
2022-11-22T12:39:56.206Z,95327.75
2022-11-22T12:44:02.690Z,95318.25
2022-11-22T12:48:09.358Z,95339.88
2022-11-22T12:52:26.425Z,95358.63
2022-11-22T12:56:34.042Z,95355.72
2022-11-22T13:00:44.694Z,95329.47
2022-11-22T13:04:59.922Z,95347.28
2022-11-22T13:09:08.312Z,95356.84
2022-11-22T13:13:25.231Z,95357.16
2022-11-22T13:17:30.778Z,95339.00
2022-11-22T13:21:46.483Z,95342.06
2022-11-22T13:26:14.555Z,95346.69
2022-11-22T13:30:23.837Z,95353.06
2022-11-22T13:34:29.380Z,95347.19
2022-11-22T13:38:31.301Z,95348.19
2022-11-22T13:42:35.032Z,95345.72
2022-11-22T13:46:56.838Z,95353.31
2022-11-22T13:51:06.516Z,95364.28
2022-11-22T13:55:36.033Z,95351.56
2022-11-22T13:59:46.605Z,95354.47
2022-11-22T14:03:47.286Z,95341.66
2022-11-22T14:07:52.159Z,95344.94
2022-11-22T14:12:26.360Z,95368.81
2022-11-22T14:16:53.587Z,95345.84
2022-11-22T14:21:07.280Z,95369.28
2022-11-22T14:25:33.378Z,95347.81
2022-11-22T14:30:05.880Z,95360.44
2022-11-22T14:34:27.658Z,95380.47
2022-11-22T14:38:35.822Z,95348.34
2022-11-22T14:42:55.786Z,95385.53
2022-11-22T14:47:04.448Z,95348.53
2022-11-22T14:51:18.175Z,95386.34
2022-11-22T14:55:23.193Z,95369.03
2022-11-22T15:00:03.187Z,95389.59
2022-11-22T15:09:13.831Z,95375.88
2022-11-22T15:09:52.945Z,95376.47
2022-11-22T15:14:46.912Z,95377.81
2022-11-22T15:59:03.865Z,95460.69
2022-11-22T16:03:07.119Z,95463.94
2022-11-22T16:07:10.286Z,95457.84
2022-11-22T16:11:19.477Z,95479.34
2022-11-22T16:15:36.342Z,95489.78
2022-11-22T16:19:39.230Z,95481.38
2022-11-22T16:23:40.979Z,95488.28
2022-11-22T16:27:49.118Z,95478.34
2022-11-22T16:31:49.843Z,95481.97
2022-11-22T16:35:57.021Z,95454.50
2022-11-22T16:39:57.236Z,95479.66
2022-11-22T16:44:00.003Z,95485.69
2022-11-22T16:48:24.537Z,95485.13
2022-11-22T16:52:23.124Z,95495.09
2022-11-22T16:56:26.600Z,95492.63
2022-11-22T17:00:27.446Z,95482.91
2022-11-22T17:04:28.272Z,95469.97
2022-11-22T17:08:31.111Z,95492.81
2022-11-22T17:12:33.820Z,95484.72
2022-11-22T17:16:34.415Z,95490.47
2022-11-22T17:20:34.760Z,95454.50
2022-11-22T17:24:38.107Z,95495.75
2022-11-22T17:28:38.518Z,95492.00
2022-11-22T17:32:40.313Z,95492.66
2022-11-22T17:36:40.898Z,95496.94
2022-11-22T17:40:44.835Z,95499.38
2022-11-22T17:44:44.985Z,95503.44
2022-11-22T17:48:45.239Z,95504.28
2022-11-22T17:52:45.364Z,95500.38
2022-11-22T17:56:48.092Z,95511.56
2022-11-22T18:00:48.208Z,95513.44
2022-11-22T18:04:48.302Z,95519.97
2022-11-22T18:08:48.721Z,95518.63
2022-11-22T18:13:19.799Z,95528.41
2022-11-22T18:17:12.182Z,95528.97
2022-11-22T18:21:17.139Z,95540.13
2022-11-22T18:25:18.007Z,95545.56
2022-11-22T18:29:42.098Z,95546.69
2022-11-22T18:33:40.862Z,95548.84
2022-11-22T18:37:41.542Z,95536.13
2022-11-22T18:41:47.091Z,95523.44
2022-11-22T18:45:49.937Z,95555.25
2022-11-22T18:49:50.940Z,95560.53
2022-11-22T18:53:51.242Z,95542.50
2022-11-22T18:57:53.940Z,95543.28
2022-11-22T19:01:56.953Z,95541.91
2022-11-22T19:05:57.126Z,95564.38
2022-11-22T19:09:57.364Z,95566.38
2022-11-22T19:13:57.627Z,95568.75
2022-11-22T19:18:00.471Z,95557.41
2022-11-22T19:22:00.670Z,95552.09
2022-11-22T19:26:00.969Z,95561.28
2022-11-22T19:30:01.200Z,95552.28
2022-11-22T19:34:04.158Z,95564.19
2022-11-22T19:38:04.358Z,95553.94
2022-11-22T19:42:04.585Z,95572.81
2022-11-22T19:46:05.453Z,95555.41
2022-11-22T19:50:09.371Z,95563.50
2022-11-22T19:54:10.741Z,95576.94
2022-11-22T19:58:11.018Z,95591.44
2022-11-22T20:02:13.586Z,95585.88
2022-11-22T20:06:17.317Z,95587.97
2022-11-22T20:10:18.782Z,95594.38
2022-11-22T20:14:19.137Z,95577.97
2022-11-22T20:18:19.353Z,95587.53
2022-11-22T20:22:22.165Z,95598.66
2022-11-22T20:26:25.308Z,95589.66
2022-11-22T20:30:25.474Z,95574.81
2022-11-22T20:34:26.073Z,95589.09
2022-11-22T20:38:28.958Z,95588.56
2022-11-22T20:42:36.456Z,95569.81
2022-11-22T20:46:40.511Z,95567.75
2022-11-22T20:50:40.830Z,95577.03
2022-11-22T20:54:43.656Z,95602.47
2022-11-22T20:58:44.153Z,95606.72
2022-11-22T21:02:44.459Z,95608.56
2022-11-22T21:06:44.665Z,95607.47
2022-11-22T21:10:47.551Z,95617.00
2022-11-22T21:14:51.322Z,95617.81
2022-11-22T21:18:54.419Z,95620.75
2022-11-22T21:22:56.506Z,95624.47
2022-11-22T21:26:59.262Z,95617.03
2022-11-22T21:31:00.410Z,95599.31
2022-11-22T21:35:00.808Z,95616.78
2022-11-22T21:39:01.245Z,95630.03
2022-11-22T21:43:04.061Z,95632.16
2022-11-22T21:47:04.828Z,95625.75
2022-11-22T21:51:13.577Z,95586.56
2022-11-22T21:55:22.627Z,95530.97
2022-11-22T21:59:25.756Z,95622.13
2022-11-22T22:03:27.440Z,95622.13
2022-11-22T22:07:51.528Z,95621.84
2022-11-22T22:11:49.063Z,95636.44
2022-11-22T22:15:52.099Z,95638.84
2022-11-22T22:19:52.501Z,95625.03
2022-11-22T22:23:53.577Z,95613.06
2022-11-22T22:27:53.944Z,95631.94
2022-11-22T22:31:56.804Z,95640.72
2022-11-22T22:35:59.868Z,95587.69
2022-11-22T22:40:20.572Z,95585.56
2022-11-22T22:44:23.389Z,95655.31
2022-11-22T22:48:26.689Z,95646.03
2022-11-22T22:52:27.367Z,95649.19
2022-11-22T22:56:28.178Z,95656.63
2022-11-22T23:00:28.556Z,95667.78
2022-11-22T23:04:31.723Z,95665.63
2022-11-22T23:08:31.878Z,95667.75
2022-11-22T23:12:32.191Z,95671.75
2022-11-22T23:16:32.554Z,95668.28
2022-11-22T23:20:35.284Z,95678.38
2022-11-22T23:24:36.303Z,95677.28
2022-11-22T23:28:36.756Z,95669.38
2022-11-22T23:32:37.013Z,95679.97
2022-11-22T23:36:41.233Z,95665.66
2022-11-22T23:40:41.498Z,95686.88
2022-11-22T23:44:41.855Z,95690.03
2022-11-22T23:48:41.988Z,95696.94
2022-11-22T23:52:44.668Z,95686.34
2022-11-22T23:56:45.469Z,95693.22
